Time;durP1;ratioP1;P1;durP2;ratioP2;P2;SDS_P1;SDS_P2;PMS_P1;PMS_P2;Temp;Humidity;BMP_temperature;BMP_pressure;BME280_temperature;BME280_humidity;BME280_pressure;Samples;Min_cycle;Max_cycle;Signal;HPM_P1;HPM_P2
2022/04/28 00:00:28;;;;;;;20.90;16.73;;;;;;;;;;4944243;28;20234;-80
2022/04/28 00:02:55;;;;;;;21.07;16.47;;;;;;;;;;4942587;28;20584;-80
2022/04/28 00:05:24;;;;;;;21.43;16.37;;;;;;;;;;4935755;29;20264;-80
2022/04/28 00:07:51;;;;;;;19.10;17.03;;;;;;;;;;4953484;29;20287;-80
2022/04/28 00:10:20;;;;;;;20.27;16.90;;;;;;;;;;4948029;29;20235;-80
2022/04/28 00:12:47;;;;;;;20.63;16.53;;;;;;;;;;4949411;29;20235;-80
2022/04/28 00:15:14;;;;;;;21.77;16.33;;;;;;;;;;4949506;28;20235;-79
2022/04/28 00:17:42;;;;;;;24.33;17.30;;;;;;;;;;4953352;28;20230;-80
2022/04/28 00:20:09;;;;;;;21.30;16.97;;;;;;;;;;4950225;28;20238;-80
2022/04/28 00:22:37;;;;;;;18.87;16.03;;;;;;;;;;4948439;29;20240;-80
2022/04/28 00:25:05;;;;;;;18.87;16.93;;;;;;;;;;4942656;29;20743;-80
2022/04/28 00:27:34;;;;;;;19.10;16.47;;;;;;;;;;4935120;29;20622;-80
2022/04/28 00:30:01;;;;;;;19.57;16.80;;;;;;;;;;4935527;29;20209;-80
2022/04/28 00:32:29;;;;;;;18.30;15.90;;;;;;;;;;4935670;29;20713;-80
2022/04/28 00:34:56;;;;;;;19.97;16.73;;;;;;;;;;4952455;29;20259;-80
2022/04/28 00:37:23;;;;;;;18.63;15.90;;;;;;;;;;4954343;29;20260;-80
2022/04/28 00:39:51;;;;;;;21.10;16.17;;;;;;;;;;4941962;29;20635;-80
2022/04/28 00:42:19;;;;;;;19.83;16.43;;;;;;;;;;4950009;29;20196;-80
2022/04/28 00:44:48;;;;;;;20.97;16.50;;;;;;;;;;4942342;29;20303;-79
2022/04/28 00:47:15;;;;;;;19.40;15.60;;;;;;;;;;4945046;29;20231;-80
2022/04/28 00:52:29;;;;;;;24.27;16.97;;;;;;;;;;4935398;29;20203;-79
2022/04/28 00:54:56;;;;;;;19.83;17.07;;;;;;;;;;4950332;29;20202;-80
2022/04/28 00:57:24;;;;;;;19.83;16.07;;;;;;;;;;4940908;28;20251;-80
2022/04/28 00:59:53;;;;;;;19.03;15.80;;;;;;;;;;4947874;29;20343;-80
2022/04/28 01:02:20;;;;;;;23.17;16.17;;;;;;;;;;4943160;29;20642;-80
2022/04/28 01:04:48;;;;;;;21.37;16.70;;;;;;;;;;4948606;28;20381;-80
2022/04/28 01:07:15;;;;;;;21.40;16.30;;;;;;;;;;4949420;28;20254;-80
2022/04/28 01:09:42;;;;;;;23.83;16.40;;;;;;;;;;4953496;29;20274;-81
2022/04/28 01:12:12;;;;;;;19.80;16.10;;;;;;;;;;4953771;28;20307;-80
2022/04/28 01:14:39;;;;;;;19.77;15.90;;;;;;;;;;4944201;29;20252;-80
2022/04/28 01:17:08;;;;;;;18.80;15.83;;;;;;;;;;4953234;28;20666;-80
2022/04/28 01:19:35;;;;;;;19.50;16.33;;;;;;;;;;4949429;29;20239;-80
2022/04/28 01:22:04;;;;;;;21.10;16.30;;;;;;;;;;4948635;29;20291;-80
2022/04/28 01:24:32;;;;;;;19.77;16.13;;;;;;;;;;4950768;29;20298;-80
2022/04/28 01:27:01;;;;;;;20.73;15.77;;;;;;;;;;4934554;29;20204;-80
2022/04/28 01:29:29;;;;;;;23.27;16.67;;;;;;;;;;4934702;29;20204;-79
2022/04/28 01:31:56;;;;;;;21.33;16.37;;;;;;;;;;4940826;29;20243;-80
2022/04/28 01:34:23;;;;;;;19.63;16.00;;;;;;;;;;4953034;29;20212;-80
2022/04/28 01:36:50;;;;;;;21.80;16.17;;;;;;;;;;4934541;29;20239;-80
2022/04/28 01:39:19;;;;;;;19.73;15.97;;;;;;;;;;4934150;29;20948;-80
2022/04/28 01:41:48;;;;;;;21.63;16.30;;;;;;;;;;4934563;29;20208;-80
2022/04/28 01:44:16;;;;;;;22.13;16.20;;;;;;;;;;4935174;29;20648;-79
2022/04/28 01:46:43;;;;;;;20.70;16.17;;;;;;;;;;4950105;28;20265;-80
2022/04/28 01:49:10;;;;;;;19.33;16.30;;;;;;;;;;4952163;29;20239;-80
2022/04/28 01:57:08;;;;;;;19.17;16.60;;;;;;;;;;4941403;29;20309;-80
2022/04/28 01:59:35;;;;;;;21.20;16.67;;;;;;;;;;4945549;29;20290;-80
2022/04/28 02:02:03;;;;;;;21.40;16.70;;;;;;;;;;4956717;29;20637;-80
2022/04/28 02:04:30;;;;;;;24.20;17.00;;;;;;;;;;4957259;29;20235;-79
2022/04/28 02:06:57;;;;;;;20.30;16.53;;;;;;;;;;4956446;29;20235;-80
2022/04/28 02:09:26;;;;;;;23.47;16.87;;;;;;;;;;4955286;28;20310;-79
2022/04/28 02:11:54;;;;;;;21.13;17.17;;;;;;;;;;4947515;29;20250;-80
2022/04/28 02:14:21;;;;;;;21.23;16.47;;;;;;;;;;4945707;29;20228;-80
2022/04/28 02:16:48;;;;;;;21.87;16.23;;;;;;;;;;4947205;29;20233;-80
2022/04/28 02:19:15;;;;;;;23.00;17.03;;;;;;;;;;4940737;29;20254;-80
2022/04/28 02:21:43;;;;;;;20.93;16.57;;;;;;;;;;4948276;29;20205;-80
2022/04/28 02:24:10;;;;;;;24.17;17.83;;;;;;;;;;4949921;29;20238;-80
2022/04/28 02:26:39;;;;;;;19.97;16.77;;;;;;;;;;4943099;29;20235;-80
2022/04/28 02:29:06;;;;;;;22.40;17.13;;;;;;;;;;4948878;28;20234;-79
2022/04/28 02:31:33;;;;;;;20.97;16.93;;;;;;;;;;4955069;28;20286;-79
2022/04/28 02:34:00;;;;;;;22.43;16.90;;;;;;;;;;4948218;29;20238;-80
2022/04/28 02:36:27;;;;;;;20.30;16.70;;;;;;;;;;4948671;29;20207;-80
2022/04/28 02:38:55;;;;;;;22.97;17.70;;;;;;;;;;4953821;29;20312;-80
2022/04/28 02:41:22;;;;;;;22.83;16.97;;;;;;;;;;4937492;28;20291;-80
2022/04/28 02:43:50;;;;;;;20.43;16.40;;;;;;;;;;4937353;29;20257;-80
2022/04/28 02:46:18;;;;;;;22.93;17.43;;;;;;;;;;4946389;29;20239;-80
2022/04/28 02:48:45;;;;;;;22.77;17.40;;;;;;;;;;4938265;29;20246;-79
2022/04/28 02:51:13;;;;;;;22.00;17.87;;;;;;;;;;4952561;28;20642;-80
2022/04/28 02:53:40;;;;;;;21.17;17.00;;;;;;;;;;4952268;29;20206;-80
2022/04/28 02:56:07;;;;;;;25.07;17.60;;;;;;;;;;4942920;29;20307;-80
2022/04/28 02:58:35;;;;;;;24.37;17.97;;;;;;;;;;4955520;29;20257;-80
2022/04/28 03:01:03;;;;;;;23.03;17.63;;;;;;;;;;4953836;29;20246;-80
2022/04/28 03:03:31;;;;;;;22.23;16.90;;;;;;;;;;4937034;29;20240;-80
2022/04/28 03:11:28;;;;;;;25.73;17.67;;;;;;;;;;4950404;28;20289;-80
2022/04/28 03:13:56;;;;;;;22.90;17.50;;;;;;;;;;4951208;29;20231;-79
2022/04/28 03:16:25;;;;;;;25.17;18.63;;;;;;;;;;4944646;29;20267;-79
2022/04/28 03:18:52;;;;;;;24.97;18.20;;;;;;;;;;4955192;28;20249;-79
2022/04/28 03:21:19;;;;;;;23.23;18.23;;;;;;;;;;4955167;29;20243;-80
2022/04/28 03:23:46;;;;;;;22.30;17.73;;;;;;;;;;4939587;29;20203;-79
2022/04/28 03:26:13;;;;;;;23.87;18.07;;;;;;;;;;4949505;29;20727;-80
2022/04/28 03:28:41;;;;;;;22.80;18.10;;;;;;;;;;4945298;29;20249;-80
2022/04/28 03:31:08;;;;;;;23.93;18.67;;;;;;;;;;4950976;29;20239;-80
2022/04/28 03:33:37;;;;;;;23.93;18.10;;;;;;;;;;4947004;28;20210;-79
2022/04/28 03:36:50;;;;;;;21.83;18.03;;;;;;;;;;4951467;28;20226;-80
2022/04/28 03:38:52;;;;;;;24.03;18.53;;;;;;;;;;4938234;28;20224;-80
2022/04/28 03:41:19;;;;;;;21.93;17.60;;;;;;;;;;4951627;28;20711;-79
2022/04/28 03:43:47;;;;;;;25.97;18.07;;;;;;;;;;4935563;29;20688;-80
2022/04/28 03:46:15;;;;;;;23.97;18.20;;;;;;;;;;4937976;29;20283;-80
2022/04/28 03:48:43;;;;;;;23.77;18.00;;;;;;;;;;4935528;29;20203;-80
2022/04/28 03:51:10;;;;;;;24.67;19.00;;;;;;;;;;4938542;29;20295;-80
2022/04/28 03:53:38;;;;;;;26.83;18.67;;;;;;;;;;4955043;29;20207;-80
2022/04/28 03:56:05;;;;;;;26.13;19.00;;;;;;;;;;4937537;29;20290;-80
2022/04/28 03:58:33;;;;;;;24.43;19.33;;;;;;;;;;4944569;28;20220;-79
2022/04/28 04:01:01;;;;;;;27.87;19.47;;;;;;;;;;4944613;29;20199;-80
2022/04/28 04:03:30;;;;;;;24.90;18.87;;;;;;;;;;4954382;29;20237;-80
2022/04/28 04:06:00;;;;;;;24.37;19.60;;;;;;;;;;4949396;29;20290;-79
2022/04/28 04:08:27;;;;;;;26.90;19.63;;;;;;;;;;4950236;28;20875;-80
2022/04/28 04:10:54;;;;;;;26.17;19.33;;;;;;;;;;4940027;29;20303;-80
2022/04/28 04:13:21;;;;;;;26.83;19.93;;;;;;;;;;4935803;29;20286;-79
2022/04/28 04:15:50;;;;;;;24.33;19.17;;;;;;;;;;4936089;29;20258;-80
2022/04/28 04:18:18;;;;;;;26.80;19.83;;;;;;;;;;4944571;28;20223;-80
2022/04/28 04:20:45;;;;;;;27.23;20.50;;;;;;;;;;4949217;29;20196;-80
2022/04/28 04:23:13;;;;;;;26.53;19.37;;;;;;;;;;4949828;29;20241;-80
2022/04/28 04:25:41;;;;;;;25.03;19.97;;;;;;;;;;4944550;29;20298;-80
2022/04/28 04:28:08;;;;;;;25.70;20.23;;;;;;;;;;4950783;29;20199;-79
2022/04/28 04:33:20;;;;;;;25.57;19.90;;;;;;;;;;4942999;29;20207;-80
2022/04/28 04:35:47;;;;;;;25.63;20.00;;;;;;;;;;4941506;29;20761;-80
2022/04/28 04:38:16;;;;;;;26.30;19.77;;;;;;;;;;4935120;29;20243;-79
2022/04/28 04:40:43;;;;;;;29.03;20.20;;;;;;;;;;4953579;28;20234;-80
2022/04/28 04:43:13;;;;;;;24.90;19.83;;;;;;;;;;4954647;28;20343;-80
2022/04/28 04:45:42;;;;;;;28.93;20.10;;;;;;;;;;4951002;29;20211;-80
2022/04/28 04:48:09;;;;;;;27.50;20.40;;;;;;;;;;4938291;29;20198;-80
2022/04/28 04:50:37;;;;;;;27.50;20.63;;;;;;;;;;4951445;29;20199;-79
2022/04/28 04:53:05;;;;;;;28.60;20.70;;;;;;;;;;4952451;29;20286;-80
2022/04/28 04:55:33;;;;;;;25.43;19.53;;;;;;;;;;4944374;29;20213;-79
2022/04/28 04:58:01;;;;;;;27.00;20.57;;;;;;;;;;4946276;29;20226;-80
2022/04/28 05:00:28;;;;;;;28.43;20.00;;;;;;;;;;4937207;29;20234;-78
2022/04/28 05:02:55;;;;;;;27.37;21.50;;;;;;;;;;4945461;28;20246;-79
2022/04/28 05:05:22;;;;;;;27.27;20.23;;;;;;;;;;4949707;29;20634;-79
2022/04/28 05:07:50;;;;;;;29.87;20.73;;;;;;;;;;4952811;28;20278;-79
2022/04/28 05:10:17;;;;;;;25.20;19.27;;;;;;;;;;4939491;29;20239;-79
2022/04/28 05:12:46;;;;;;;27.03;20.63;;;;;;;;;;4935075;29;20703;-79
2022/04/28 05:15:14;;;;;;;26.90;20.30;;;;;;;;;;4947830;29;20299;-79
2022/04/28 05:17:41;;;;;;;28.73;19.93;;;;;;;;;;4941706;29;20247;-80
2022/04/28 05:20:08;;;;;;;28.77;20.37;;;;;;;;;;4945642;29;20227;-79
2022/04/28 05:22:36;;;;;;;26.80;19.53;;;;;;;;;;4937785;29;20207;-79
2022/04/28 05:25:04;;;;;;;29.80;21.00;;;;;;;;;;4950064;29;20286;-79
2022/04/28 05:27:31;;;;;;;26.67;19.83;;;;;;;;;;4945524;29;20287;-80
2022/04/28 05:29:59;;;;;;;27.07;20.37;;;;;;;;;;4943481;29;20203;-79
2022/04/28 05:32:27;;;;;;;29.30;19.53;;;;;;;;;;4941614;29;20231;-80
2022/04/28 05:34:54;;;;;;;26.40;19.63;;;;;;;;;;4952139;28;20281;-80
2022/04/28 05:37:23;;;;;;;27.67;20.13;;;;;;;;;;4953429;29;20294;-80
2022/04/28 05:39:50;;;;;;;26.03;19.60;;;;;;;;;;4942302;29;20349;-80
2022/04/28 05:42:18;;;;;;;30.17;20.77;;;;;;;;;;4947294;28;20335;-80
2022/04/28 05:47:32;;;;;;;28.17;19.77;;;;;;;;;;4949086;28;20766;-81
2022/04/28 05:49:59;;;;;;;25.40;19.13;;;;;;;;;;4934463;29;20200;-80
2022/04/28 05:52:27;;;;;;;27.37;20.57;;;;;;;;;;4944019;29;20238;-81
2022/04/28 05:54:54;;;;;;;26.97;19.67;;;;;;;;;;4953446;28;20566;-81
2022/04/28 05:57:21;;;;;;;27.13;19.80;;;;;;;;;;4951312;29;20289;-80
2022/04/28 05:59:48;;;;;;;28.90;20.40;;;;;;;;;;4939651;29;20702;-82
2022/04/28 06:02:16;;;;;;;27.17;19.73;;;;;;;;;;4953722;29;20686;-80
2022/04/28 06:04:44;;;;;;;25.13;19.03;;;;;;;;;;4954182;29;20235;-80
2022/04/28 06:07:11;;;;;;;33.20;20.13;;;;;;;;;;4953118;29;20253;-79
2022/04/28 06:09:38;;;;;;;27.70;20.20;;;;;;;;;;4953281;29;20595;-79
2022/04/28 06:12:06;;;;;;;27.80;19.50;;;;;;;;;;4953983;29;20625;-80
2022/04/28 06:14:33;;;;;;;27.27;19.63;;;;;;;;;;4953314;29;20286;-80
2022/04/28 06:17:01;;;;;;;27.23;19.43;;;;;;;;;;4953501;28;20279;-79
2022/04/28 06:19:28;;;;;;;31.27;19.80;;;;;;;;;;4953307;28;20224;-79
2022/04/28 06:21:57;;;;;;;25.97;19.17;;;;;;;;;;4953533;29;20294;-80
2022/04/28 06:24:26;;;;;;;29.23;20.40;;;;;;;;;;4953065;28;20293;-80
2022/04/28 06:26:53;;;;;;;26.93;19.37;;;;;;;;;;4953512;28;20213;-79
2022/04/28 06:29:20;;;;;;;25.80;19.37;;;;;;;;;;4953117;29;20258;-79
2022/04/28 06:31:47;;;;;;;26.63;19.43;;;;;;;;;;4956199;28;20239;-79
2022/04/28 06:34:15;;;;;;;24.07;18.13;;;;;;;;;;4956922;29;20585;-80
2022/04/28 06:36:42;;;;;;;28.13;19.27;;;;;;;;;;4957368;29;20199;-80
2022/04/28 06:39:11;;;;;;;27.60;19.20;;;;;;;;;;4957002;29;20313;-76
2022/04/28 06:41:38;;;;;;;27.97;20.00;;;;;;;;;;4956140;29;20203;-76
2022/04/28 06:44:05;;;;;;;25.70;18.67;;;;;;;;;;4956308;29;20835;-76
2022/04/28 06:46:33;;;;;;;26.93;18.57;;;;;;;;;;4956407;28;20281;-76
2022/04/28 06:49:00;;;;;;;26.17;19.17;;;;;;;;;;4956858;28;20262;-76
2022/04/28 06:51:27;;;;;;;23.60;18.47;;;;;;;;;;4956575;28;20207;-75
2022/04/28 06:53:54;;;;;;;26.70;19.50;;;;;;;;;;4956685;28;20303;-76
2022/04/28 06:56:23;;;;;;;25.07;19.30;;;;;;;;;;4956215;28;20243;-76
2022/04/28 06:58:50;;;;;;;23.70;18.00;;;;;;;;;;4956548;28;20227;-77
2022/04/28 07:01:18;;;;;;;24.37;18.60;;;;;;;;;;4956415;28;20234;-76
2022/04/28 07:03:45;;;;;;;27.90;18.67;;;;;;;;;;4956347;28;20290;-75
2022/04/28 07:06:12;;;;;;;27.07;18.87;;;;;;;;;;4956467;28;20746;-75
2022/04/28 07:08:39;;;;;;;29.50;19.17;;;;;;;;;;4955622;28;20781;-77
2022/04/28 07:11:06;;;;;;;27.43;18.77;;;;;;;;;;4955782;28;20674;-75
2022/04/28 07:13:37;;;;;;;28.23;18.53;;;;;;;;;;4955253;28;20203;-77
2022/04/28 07:16:04;;;;;;;24.63;19.07;;;;;;;;;;4956024;29;20206;-77
2022/04/28 07:18:31;;;;;;;28.47;18.60;;;;;;;;;;4956030;29;20262;-76
2022/04/28 07:21:01;;;;;;;26.07;18.00;;;;;;;;;;4956068;29;20224;-76
2022/04/28 07:23:28;;;;;;;24.03;18.17;;;;;;;;;;4955805;29;20207;-78
2022/04/28 07:25:55;;;;;;;27.07;18.43;;;;;;;;;;4955660;29;20239;-77
2022/04/28 07:28:23;;;;;;;24.97;18.10;;;;;;;;;;4956018;29;20239;-76
2022/04/28 07:30:51;;;;;;;24.33;17.67;;;;;;;;;;4955700;29;20207;-76
2022/04/28 07:33:19;;;;;;;25.47;17.87;;;;;;;;;;4956081;29;20204;-76
2022/04/28 07:35:46;;;;;;;26.00;18.40;;;;;;;;;;4955318;29;20634;-77
2022/04/28 07:38:13;;;;;;;25.10;17.50;;;;;;;;;;4955923;29;20290;-76
2022/04/28 07:40:40;;;;;;;23.63;17.37;;;;;;;;;;4955462;29;20262;-76
2022/04/28 07:43:08;;;;;;;25.03;18.77;;;;;;;;;;4955099;28;20247;-76
2022/04/28 07:45:35;;;;;;;23.30;17.23;;;;;;;;;;4955398;29;20237;-76
2022/04/28 07:48:05;;;;;;;23.50;18.70;;;;;;;;;;4955757;29;20239;-76
2022/04/28 07:50:32;;;;;;;25.63;17.87;;;;;;;;;;4955771;29;20213;-76
2022/04/28 07:52:59;;;;;;;23.47;17.67;;;;;;;;;;4955340;29;20234;-75
2022/04/28 07:55:26;;;;;;;24.47;17.30;;;;;;;;;;4955176;29;20209;-76
2022/04/28 07:57:53;;;;;;;25.70;17.43;;;;;;;;;;4954914;29;20311;-76
2022/04/28 08:00:21;;;;;;;25.23;17.30;;;;;;;;;;4955328;29;20315;-76
2022/04/28 08:02:48;;;;;;;25.87;17.20;;;;;;;;;;4955435;29;20237;-76
2022/04/28 08:05:17;;;;;;;25.97;17.50;;;;;;;;;;4954842;28;20293;-76
2022/04/28 08:07:44;;;;;;;23.43;17.47;;;;;;;;;;4955011;28;20337;-77
2022/04/28 08:10:12;;;;;;;22.23;17.23;;;;;;;;;;4954871;29;20241;-76
2022/04/28 08:12:39;;;;;;;22.40;17.23;;;;;;;;;;4955332;28;20296;-76
2022/04/28 08:15:07;;;;;;;24.97;17.03;;;;;;;;;;4955343;28;20227;-77
2022/04/28 08:17:35;;;;;;;24.23;17.27;;;;;;;;;;4955384;28;20207;-76
2022/04/28 08:20:02;;;;;;;23.17;17.17;;;;;;;;;;4954746;28;20269;-76
2022/04/28 08:22:30;;;;;;;21.37;15.77;;;;;;;;;;4955394;28;20247;-76
2022/04/28 08:24:58;;;;;;;22.87;17.27;;;;;;;;;;4954598;28;20292;-76
2022/04/28 08:27:25;;;;;;;22.03;16.90;;;;;;;;;;4955196;28;20199;-76
2022/04/28 08:29:52;;;;;;;22.63;16.83;;;;;;;;;;4954675;28;20226;-77
2022/04/28 08:32:19;;;;;;;22.70;16.97;;;;;;;;;;4954429;29;20222;-76
2022/04/28 08:34:47;;;;;;;21.10;16.97;;;;;;;;;;4954433;29;20234;-76
2022/04/28 08:37:14;;;;;;;24.97;17.33;;;;;;;;;;4954577;29;20297;-76
2022/04/28 08:39:43;;;;;;;22.87;17.20;;;;;;;;;;4954302;29;20313;-76
2022/04/28 08:42:13;;;;;;;25.00;17.30;;;;;;;;;;4954573;29;20290;-76
2022/04/28 08:44:40;;;;;;;22.80;16.77;;;;;;;;;;4954378;29;20290;-77
2022/04/28 08:47:08;;;;;;;19.87;16.83;;;;;;;;;;4954527;29;20319;-77
2022/04/28 08:49:36;;;;;;;22.07;16.60;;;;;;;;;;4954553;29;20230;-77
2022/04/28 08:52:04;;;;;;;21.50;16.30;;;;;;;;;;4954070;29;20215;-77
2022/04/28 08:54:31;;;;;;;24.47;16.77;;;;;;;;;;4953563;28;20235;-77
2022/04/28 08:57:00;;;;;;;22.67;16.70;;;;;;;;;;4954182;29;20726;-76
2022/04/28 08:59:28;;;;;;;22.60;16.93;;;;;;;;;;4954606;29;20262;-77
2022/04/28 09:01:55;;;;;;;21.23;17.03;;;;;;;;;;4954422;29;20246;-77
2022/04/28 09:04:23;;;;;;;22.87;15.97;;;;;;;;;;4954019;29;20250;-77
2022/04/28 09:06:51;;;;;;;20.07;16.97;;;;;;;;;;4953871;29;20255;-76
2022/04/28 09:09:19;;;;;;;21.13;16.33;;;;;;;;;;4953507;28;20743;-77
2022/04/28 09:11:49;;;;;;;22.73;17.27;;;;;;;;;;4954163;29;20211;-76
2022/04/28 09:14:20;;;;;;;21.23;16.17;;;;;;;;;;4953822;29;20210;-76
2022/04/28 09:16:49;;;;;;;21.00;16.07;;;;;;;;;;4954122;29;20199;-76
2022/04/28 09:19:19;;;;;;;20.60;16.00;;;;;;;;;;4953316;28;20223;-77
2022/04/28 09:21:47;;;;;;;23.43;16.17;;;;;;;;;;4953254;28;20207;-76
2022/04/28 09:24:14;;;;;;;18.13;15.97;;;;;;;;;;4953689;28;20659;-76
2022/04/28 09:26:42;;;;;;;20.57;16.00;;;;;;;;;;4953941;28;20293;-77
2022/04/28 09:29:12;;;;;;;20.73;15.47;;;;;;;;;;4953650;29;20681;-77
2022/04/28 09:31:42;;;;;;;20.53;16.73;;;;;;;;;;4944873;29;20219;-77
2022/04/28 09:34:09;;;;;;;22.50;17.10;;;;;;;;;;4934045;29;20647;-77
2022/04/28 09:36:37;;;;;;;23.60;18.23;;;;;;;;;;4934377;29;20231;-77
2022/04/28 09:39:04;;;;;;;24.03;19.80;;;;;;;;;;4934309;29;20239;-77
2022/04/28 09:44:18;;;;;;;22.10;16.23;;;;;;;;;;4934606;29;20279;-77
2022/04/28 09:46:47;;;;;;;21.07;16.17;;;;;;;;;;4934430;29;20210;-77
2022/04/28 09:49:16;;;;;;;21.07;15.67;;;;;;;;;;4933400;29;20306;-77
2022/04/28 09:51:44;;;;;;;18.87;14.53;;;;;;;;;;4934062;29;20203;-77
2022/04/28 09:54:12;;;;;;;17.67;14.97;;;;;;;;;;4949819;29;20207;-77
2022/04/28 09:56:40;;;;;;;18.33;14.73;;;;;;;;;;4953423;29;20295;-77
2022/04/28 09:59:09;;;;;;;19.13;14.53;;;;;;;;;;4953535;29;20298;-77
2022/04/28 10:01:37;;;;;;;20.90;14.57;;;;;;;;;;4953091;29;20305;-77
2022/04/28 10:04:06;;;;;;;18.10;14.53;;;;;;;;;;4953403;28;20198;-77
2022/04/28 10:06:35;;;;;;;16.30;13.93;;;;;;;;;;4955970;28;20206;-77
2022/04/28 10:09:05;;;;;;;15.87;13.80;;;;;;;;;;4940701;29;20302;-77
2022/04/28 10:11:32;;;;;;;19.17;14.50;;;;;;;;;;4941220;29;20192;-77
2022/04/28 10:14:01;;;;;;;18.37;13.83;;;;;;;;;;4957420;28;20224;-77
2022/04/28 10:16:28;;;;;;;15.18;13.38;;;;;;;;;;4956796;28;20730;-78
2022/04/28 10:19:00;;;;;;;15.93;13.10;;;;;;;;;;4957189;28;20679;-77
2022/04/28 10:21:33;;;;;;;14.52;13.02;;;;;;;;;;4956597;28;20688;-78
2022/04/28 10:32:33;;;;;;;18.13;12.85;;;;;;;;;;4956685;28;20222;-77
2022/04/28 10:35:02;;;;;;;15.95;12.98;;;;;;;;;;4956297;29;20286;-78
2022/04/28 10:37:33;;;;;;;16.05;13.27;;;;;;;;;;4947618;29;20280;-78
2022/04/28 10:40:00;;;;;;;15.43;12.23;;;;;;;;;;4937735;29;20627;-78
2022/04/28 10:42:48;;;;;;;14.32;12.75;;;;;;;;;;4940629;29;20203;-77
2022/04/28 10:45:19;;;;;;;13.65;12.10;;;;;;;;;;4952079;29;20675;-78
2022/04/28 10:47:47;;;;;;;15.00;11.88;;;;;;;;;;4956615;29;20198;-78
2022/04/28 10:50:22;;;;;;;16.02;12.32;;;;;;;;;;4956334;29;20289;-78
2022/04/28 10:52:56;;;;;;;15.70;12.13;;;;;;;;;;4934988;29;20199;-77
2022/04/28 10:55:24;;;;;;;13.60;11.07;;;;;;;;;;4937128;29;20290;-78
2022/04/28 10:57:51;;;;;;;14.27;11.57;;;;;;;;;;4942642;28;20199;-78
2022/04/28 11:00:34;;;;;;;13.77;11.68;;;;;;;;;;4956135;28;20310;-78
2022/04/28 11:03:02;;;;;;;13.95;12.48;;;;;;;;;;4956280;29;20229;-78
2022/04/28 11:05:31;;;;;;;13.23;11.82;;;;;;;;;;4956404;28;20231;-77
2022/04/28 11:08:01;;;;;;;13.82;10.45;;;;;;;;;;4935845;29;20284;-77
2022/04/28 11:10:29;;;;;;;13.45;10.70;;;;;;;;;;4937521;29;20358;-77
2022/04/28 11:12:56;;;;;;;11.38;10.18;;;;;;;;;;4937274;29;20200;-78
2022/04/28 11:15:25;;;;;;;14.35;10.32;;;;;;;;;;4937080;29;20200;-78
2022/04/28 11:17:52;;;;;;;12.45;9.55;;;;;;;;;;4935381;29;20212;-78
2022/04/28 11:20:21;;;;;;;12.77;9.65;;;;;;;;;;4936719;29;20599;-78
2022/04/28 11:22:49;;;;;;;11.20;9.10;;;;;;;;;;4936230;29;20203;-78
2022/04/28 11:25:19;;;;;;;9.88;8.45;;;;;;;;;;4935747;29;20204;-78
2022/04/28 11:27:49;;;;;;;10.55;8.90;;;;;;;;;;4937058;29;20200;-78
2022/04/28 11:30:17;;;;;;;10.88;9.43;;;;;;;;;;4936672;29;20238;-78
2022/04/28 11:32:50;;;;;;;9.38;8.48;;;;;;;;;;4936480;29;20235;-78
2022/04/28 11:35:18;;;;;;;9.85;8.55;;;;;;;;;;4936777;29;20259;-78
2022/04/28 11:37:45;;;;;;;10.05;8.63;;;;;;;;;;4936604;29;20242;-78
2022/04/28 11:40:14;;;;;;;10.00;9.00;;;;;;;;;;4936414;29;20303;-78
2022/04/28 11:42:42;;;;;;;10.07;9.07;;;;;;;;;;4936783;29;20239;-76
2022/04/28 11:45:10;;;;;;;10.50;8.77;;;;;;;;;;4936157;29;20243;-78
2022/04/28 11:47:42;;;;;;;10.60;8.82;;;;;;;;;;4935831;29;20235;-78
2022/04/28 11:50:18;;;;;;;11.13;8.77;;;;;;;;;;4936229;29;20196;-78
2022/04/28 11:52:45;;;;;;;11.20;9.07;;;;;;;;;;4936334;29;20286;-78
2022/04/28 11:55:13;;;;;;;10.20;9.00;;;;;;;;;;4935740;29;21089;-78
2022/04/28 11:57:40;;;;;;;10.35;8.70;;;;;;;;;;4935936;29;20695;-78
2022/04/28 12:00:11;;;;;;;10.57;9.35;;;;;;;;;;4935996;29;20211;-78
2022/04/28 12:02:39;;;;;;;10.65;9.55;;;;;;;;;;4936038;29;20210;-78
2022/04/28 12:05:10;;;;;;;11.55;9.43;;;;;;;;;;4935837;29;20204;-78
2022/04/28 12:07:37;;;;;;;10.35;9.30;;;;;;;;;;4937755;29;20227;-78
2022/04/28 12:15:36;;;;;;;11.75;9.25;;;;;;;;;;4935749;29;20298;-78
2022/04/28 12:20:55;;;;;;;11.00;9.90;;;;;;;;;;4942349;29;20368;-78
2022/04/28 12:23:32;;;;;;;11.20;9.55;;;;;;;;;;4935863;29;20235;-78
2022/04/28 12:26:03;;;;;;;11.43;10.23;;;;;;;;;;4935507;29;20290;-79
2022/04/28 12:28:31;;;;;;;10.82;9.77;;;;;;;;;;4938086;29;20387;-78
2022/04/28 12:31:02;;;;;;;10.88;9.63;;;;;;;;;;4953619;28;20309;-78
2022/04/28 12:33:29;;;;;;;11.05;9.85;;;;;;;;;;4954555;29;20262;-78
2022/04/28 12:35:59;;;;;;;13.02;10.18;;;;;;;;;;4954434;28;20238;-78
2022/04/28 12:38:27;;;;;;;12.55;10.68;;;;;;;;;;4954675;28;20202;-78
2022/04/28 12:40:54;;;;;;;12.98;9.73;;;;;;;;;;4954359;28;20287;-78
2022/04/28 12:43:38;;;;;;;13.43;9.73;;;;;;;;;;4954640;28;20234;-78
2022/04/28 12:46:07;;;;;;;13.30;10.52;;;;;;;;;;4954078;28;20203;-78
2022/04/28 12:48:35;;;;;;;12.05;10.20;;;;;;;;;;4954431;29;20209;-79
2022/04/28 12:51:09;;;;;;;13.00;11.70;;;;;;;;;;4954374;29;20585;-78
2022/04/28 12:53:37;;;;;;;13.27;10.60;;;;;;;;;;4954407;29;20261;-79
2022/04/28 12:56:06;;;;;;;12.10;10.00;;;;;;;;;;4954318;29;20245;-78
2022/04/28 12:58:37;;;;;;;13.98;10.45;;;;;;;;;;4954156;29;20203;-78
2022/04/28 13:01:04;;;;;;;11.65;9.60;;;;;;;;;;4953771;29;20326;-78
2022/04/28 13:03:33;;;;;;;11.43;10.00;;;;;;;;;;4954433;29;20294;-78
2022/04/28 13:06:00;;;;;;;10.60;9.50;;;;;;;;;;4954241;28;20238;-79
2022/04/28 13:08:28;;;;;;;12.85;10.57;;;;;;;;;;4954027;28;20251;-78
2022/04/28 13:10:55;;;;;;;11.05;9.82;;;;;;;;;;4954050;28;20290;-79
2022/04/28 13:13:22;;;;;;;10.32;9.23;;;;;;;;;;4953926;28;20249;-78
2022/04/28 13:15:49;;;;;;;11.73;9.77;;;;;;;;;;4954452;28;20301;-79
2022/04/28 13:18:17;;;;;;;10.60;9.50;;;;;;;;;;4953903;28;20239;-79
2022/04/28 13:20:45;;;;;;;10.48;9.38;;;;;;;;;;4953407;28;20226;-78
2022/04/28 13:23:12;;;;;;;10.73;9.63;;;;;;;;;;4953602;29;20251;-79
2022/04/28 13:25:40;;;;;;;10.30;9.18;;;;;;;;;;4953884;29;20294;-78
2022/04/28 13:28:07;;;;;;;9.70;8.73;;;;;;;;;;4953771;29;20207;-79
2022/04/28 13:30:34;;;;;;;11.60;9.98;;;;;;;;;;4953848;28;20242;-79
2022/04/28 13:33:01;;;;;;;11.15;9.98;;;;;;;;;;4953937;29;20290;-79
2022/04/28 13:35:28;;;;;;;12.05;9.45;;;;;;;;;;4953383;29;20342;-78
2022/04/28 13:37:57;;;;;;;11.93;9.48;;;;;;;;;;4953887;29;20246;-78
2022/04/28 13:40:24;;;;;;;10.45;9.45;;;;;;;;;;4953034;29;20290;-78
2022/04/28 13:42:51;;;;;;;10.77;9.68;;;;;;;;;;4953821;29;20290;-78
2022/04/28 13:45:18;;;;;;;11.40;9.15;;;;;;;;;;4953757;29;20403;-79
2022/04/28 13:47:46;;;;;;;10.85;9.63;;;;;;;;;;4953778;29;20250;-78
2022/04/28 13:50:13;;;;;;;14.80;9.23;;;;;;;;;;4953726;28;20266;-79
2022/04/28 13:52:40;;;;;;;12.68;9.70;;;;;;;;;;4953719;29;20281;-78
2022/04/28 13:55:09;;;;;;;10.93;8.75;;;;;;;;;;4953614;29;20199;-79
2022/04/28 13:57:37;;;;;;;10.38;9.35;;;;;;;;;;4948095;29;20915;-78
2022/04/28 14:00:05;;;;;;;12.20;9.02;;;;;;;;;;4916780;28;20637;-78
2022/04/28 14:02:32;;;;;;;10.80;8.68;;;;;;;;;;4950366;29;20594;-78
2022/04/28 14:05:00;;;;;;;10.90;9.40;;;;;;;;;;4949644;28;20314;-79
2022/04/28 14:07:27;;;;;;;11.60;9.68;;;;;;;;;;4949279;28;20254;-78
2022/04/28 14:09:55;;;;;;;12.32;9.02;;;;;;;;;;4947790;28;20210;-78
2022/04/28 14:12:28;;;;;;;11.38;7.88;;;;;;;;;;4949747;28;20207;-78
2022/04/28 14:14:55;;;;;;;11.25;8.82;;;;;;;;;;4951425;28;20328;-78
2022/04/28 14:17:22;;;;;;;11.20;9.25;;;;;;;;;;4953430;28;20245;-79
2022/04/28 14:19:49;;;;;;;9.90;8.90;;;;;;;;;;4951388;28;20218;-79
2022/04/28 14:22:17;;;;;;;9.63;8.65;;;;;;;;;;4951531;28;20258;-78
2022/04/28 14:24:45;;;;;;;11.57;8.20;;;;;;;;;;4948385;29;20294;-78
2022/04/28 14:27:12;;;;;;;8.82;7.93;;;;;;;;;;4952174;28;20211;-78
2022/04/28 14:29:41;;;;;;;9.88;8.88;;;;;;;;;;4951595;28;20232;-78
2022/04/28 14:32:09;;;;;;;9.75;7.55;;;;;;;;;;4947859;28;20235;-78
2022/04/28 14:34:37;;;;;;;9.30;7.57;;;;;;;;;;4950882;28;20206;-78
2022/04/28 14:37:06;;;;;;;8.85;7.40;;;;;;;;;;4949860;28;20280;-79
2022/04/28 14:39:33;;;;;;;11.27;9.20;;;;;;;;;;4945989;29;20214;-78
2022/04/28 14:42:00;;;;;;;12.75;9.40;;;;;;;;;;4949877;28;20329;-78
2022/04/28 14:44:28;;;;;;;9.93;7.47;;;;;;;;;;4950278;28;20289;-78
2022/04/28 14:46:57;;;;;;;8.07;7.28;;;;;;;;;;4948360;28;20215;-78
2022/04/28 14:52:21;;;;;;;8.25;5.72;;;;;;;;;;4951634;28;20261;-78
2022/04/28 14:54:48;;;;;;;7.10;5.90;;;;;;;;;;4954709;28;20285;-78
2022/04/28 14:57:15;;;;;;;6.22;5.63;;;;;;;;;;4955300;28;20290;-78
2022/04/28 14:59:43;;;;;;;6.47;5.88;;;;;;;;;;4953127;28;20828;-78
2022/04/28 15:02:12;;;;;;;8.38;7.25;;;;;;;;;;4954080;28;20278;-78
2022/04/28 15:04:39;;;;;;;7.07;6.38;;;;;;;;;;4951992;28;20230;-78
2022/04/28 15:07:06;;;;;;;7.35;6.65;;;;;;;;;;4951922;28;20289;-78